sensor_id;sensor_type;location;lat;lon;timestamp;P1;durP1;ratioP1;P2;durP2;ratioP2
81651;SDS011;71061;55.714;37.794;2024-03-29T00:00:25;18.77;;;6.80;;
81651;SDS011;71061;55.714;37.794;2024-03-29T00:02:51;17.90;;;7.13;;
81651;SDS011;71061;55.714;37.794;2024-03-29T00:05:17;21.67;;;7.43;;
81651;SDS011;71061;55.714;37.794;2024-03-29T00:07:42;19.38;;;6.25;;
81651;SDS011;71061;55.714;37.794;2024-03-29T00:10:08;17.95;;;6.90;;
81651;SDS011;71061;55.714;37.794;2024-03-29T00:12:34;20.30;;;7.25;;
81651;SDS011;71061;55.714;37.794;2024-03-29T00:15:00;20.33;;;7.90;;
81651;SDS011;71061;55.714;37.794;2024-03-29T00:17:25;16.90;;;7.47;;
81651;SDS011;71061;55.714;37.794;2024-03-29T00:19:51;19.50;;;7.60;;
81651;SDS011;71061;55.714;37.794;2024-03-29T00:22:17;21.60;;;7.18;;
81651;SDS011;71061;55.714;37.794;2024-03-29T00:24:43;18.15;;;6.88;;
81651;SDS011;71061;55.714;37.794;2024-03-29T00:27:09;23.10;;;7.65;;
81651;SDS011;71061;55.714;37.794;2024-03-29T00:29:34;16.85;;;7.10;;
81651;SDS011;71061;55.714;37.794;2024-03-29T00:32:00;18.50;;;6.70;;
81651;SDS011;71061;55.714;37.794;2024-03-29T00:34:26;17.15;;;7.45;;
81651;SDS011;71061;55.714;37.794;2024-03-29T00:36:51;22.27;;;8.23;;
81651;SDS011;71061;55.714;37.794;2024-03-29T00:39:18;16.27;;;6.78;;
81651;SDS011;71061;55.714;37.794;2024-03-29T00:41:43;18.60;;;7.82;;
81651;SDS011;71061;55.714;37.794;2024-03-29T00:44:09;18.20;;;8.27;;
81651;SDS011;71061;55.714;37.794;2024-03-29T00:46:35;19.38;;;7.50;;
81651;SDS011;71061;55.714;37.794;2024-03-29T00:49:00;18.83;;;8.50;;
81651;SDS011;71061;55.714;37.794;2024-03-29T00:51:26;18.23;;;8.82;;
81651;SDS011;71061;55.714;37.794;2024-03-29T00:53:52;15.80;;;7.85;;
81651;SDS011;71061;55.714;37.794;2024-03-29T00:56:19;18.13;;;9.20;;
81651;SDS011;71061;55.714;37.794;2024-03-29T00:58:45;20.17;;;7.72;;
81651;SDS011;71061;55.714;37.794;2024-03-29T01:01:11;24.83;;;8.32;;
81651;SDS011;71061;55.714;37.794;2024-03-29T01:03:37;19.23;;;7.85;;
81651;SDS011;71061;55.714;37.794;2024-03-29T01:06:02;20.70;;;8.10;;
81651;SDS011;71061;55.714;37.794;2024-03-29T01:08:28;19.10;;;7.32;;
81651;SDS011;71061;55.714;37.794;2024-03-29T01:10:54;18.63;;;7.82;;
81651;SDS011;71061;55.714;37.794;2024-03-29T01:13:20;18.42;;;8.68;;
81651;SDS011;71061;55.714;37.794;2024-03-29T01:15:45;18.05;;;7.90;;
81651;SDS011;71061;55.714;37.794;2024-03-29T01:18:11;18.17;;;7.63;;
81651;SDS011;71061;55.714;37.794;2024-03-29T01:20:37;18.77;;;8.75;;
81651;SDS011;71061;55.714;37.794;2024-03-29T01:23:02;17.42;;;7.30;;
81651;SDS011;71061;55.714;37.794;2024-03-29T01:25:28;17.50;;;7.65;;
81651;SDS011;71061;55.714;37.794;2024-03-29T01:27:55;23.50;;;8.23;;
81651;SDS011;71061;55.714;37.794;2024-03-29T01:30:20;18.88;;;7.90;;
81651;SDS011;71061;55.714;37.794;2024-03-29T01:32:47;19.77;;;8.10;;
81651;SDS011;71061;55.714;37.794;2024-03-29T01:35:12;20.08;;;7.78;;
81651;SDS011;71061;55.714;37.794;2024-03-29T01:37:38;21.33;;;8.07;;
81651;SDS011;71061;55.714;37.794;2024-03-29T01:40:04;17.10;;;7.25;;
81651;SDS011;71061;55.714;37.794;2024-03-29T01:42:30;17.70;;;8.18;;
81651;SDS011;71061;55.714;37.794;2024-03-29T01:44:56;17.63;;;6.70;;
81651;SDS011;71061;55.714;37.794;2024-03-29T01:47:22;17.55;;;8.55;;
81651;SDS011;71061;55.714;37.794;2024-03-29T01:49:47;16.10;;;7.50;;
81651;SDS011;71061;55.714;37.794;2024-03-29T01:52:14;24.95;;;8.57;;
81651;SDS011;71061;55.714;37.794;2024-03-29T01:54:40;20.58;;;7.80;;
81651;SDS011;71061;55.714;37.794;2024-03-29T01:57:07;18.50;;;7.40;;
81651;SDS011;71061;55.714;37.794;2024-03-29T01:59:33;19.10;;;7.85;;
81651;SDS011;71061;55.714;37.794;2024-03-29T02:01:59;17.20;;;7.68;;
81651;SDS011;71061;55.714;37.794;2024-03-29T02:04:25;18.77;;;8.25;;
81651;SDS011;71061;55.714;37.794;2024-03-29T02:06:52;21.98;;;9.20;;
81651;SDS011;71061;55.714;37.794;2024-03-29T02:09:18;15.98;;;7.80;;
81651;SDS011;71061;55.714;37.794;2024-03-29T02:11:43;17.35;;;8.60;;
81651;SDS011;71061;55.714;37.794;2024-03-29T02:14:09;19.02;;;7.85;;
81651;SDS011;71061;55.714;37.794;2024-03-29T02:16:35;25.23;;;8.55;;
81651;SDS011;71061;55.714;37.794;2024-03-29T02:19:03;18.48;;;8.50;;
81651;SDS011;71061;55.714;37.794;2024-03-29T02:21:29;18.80;;;7.63;;
81651;SDS011;71061;55.714;37.794;2024-03-29T02:23:58;18.85;;;7.78;;
81651;SDS011;71061;55.714;37.794;2024-03-29T02:26:26;18.30;;;8.15;;
81651;SDS011;71061;55.714;37.794;2024-03-29T02:28:56;17.05;;;7.43;;
81651;SDS011;71061;55.714;37.794;2024-03-29T02:31:22;15.25;;;8.52;;
81651;SDS011;71061;55.714;37.794;2024-03-29T02:33:48;24.88;;;9.15;;
81651;SDS011;71061;55.714;37.794;2024-03-29T02:36:14;20.70;;;8.55;;
81651;SDS011;71061;55.714;37.794;2024-03-29T02:38:39;18.15;;;7.60;;
81651;SDS011;71061;55.714;37.794;2024-03-29T02:41:05;21.67;;;8.30;;
81651;SDS011;71061;55.714;37.794;2024-03-29T02:43:31;19.85;;;7.55;;
81651;SDS011;71061;55.714;37.794;2024-03-29T02:45:57;23.00;;;8.25;;
81651;SDS011;71061;55.714;37.794;2024-03-29T02:48:22;16.83;;;7.07;;
81651;SDS011;71061;55.714;37.794;2024-03-29T02:50:48;17.13;;;8.10;;
81651;SDS011;71061;55.714;37.794;2024-03-29T02:53:14;17.42;;;7.30;;
81651;SDS011;71061;55.714;37.794;2024-03-29T02:55:41;19.85;;;6.88;;
81651;SDS011;71061;55.714;37.794;2024-03-29T02:58:07;18.75;;;7.20;;
81651;SDS011;71061;55.714;37.794;2024-03-29T03:00:33;15.10;;;7.03;;
81651;SDS011;71061;55.714;37.794;2024-03-29T03:02:59;17.63;;;8.95;;
81651;SDS011;71061;55.714;37.794;2024-03-29T03:05:24;18.55;;;6.93;;
81651;SDS011;71061;55.714;37.794;2024-03-29T03:07:50;23.80;;;8.60;;
81651;SDS011;71061;55.714;37.794;2024-03-29T03:10:36;19.35;;;7.72;;
81651;SDS011;71061;55.714;37.794;2024-03-29T03:13:21;19.13;;;7.22;;
81651;SDS011;71061;55.714;37.794;2024-03-29T03:15:47;18.23;;;7.80;;
81651;SDS011;71061;55.714;37.794;2024-03-29T03:18:13;18.23;;;6.57;;
81651;SDS011;71061;55.714;37.794;2024-03-29T03:20:39;18.45;;;7.50;;
81651;SDS011;71061;55.714;37.794;2024-03-29T03:23:05;16.42;;;8.13;;
81651;SDS011;71061;55.714;37.794;2024-03-29T03:25:30;21.35;;;8.00;;
81651;SDS011;71061;55.714;37.794;2024-03-29T03:27:56;17.83;;;7.15;;
81651;SDS011;71061;55.714;37.794;2024-03-29T03:30:22;20.27;;;7.32;;
81651;SDS011;71061;55.714;37.794;2024-03-29T03:32:48;18.65;;;7.15;;
81651;SDS011;71061;55.714;37.794;2024-03-29T03:35:13;15.70;;;6.78;;
81651;SDS011;71061;55.714;37.794;2024-03-29T03:37:39;18.15;;;8.80;;
81651;SDS011;71061;55.714;37.794;2024-03-29T03:40:05;18.58;;;7.20;;
81651;SDS011;71061;55.714;37.794;2024-03-29T03:42:32;16.23;;;7.13;;
81651;SDS011;71061;55.714;37.794;2024-03-29T03:44:58;16.27;;;7.05;;
81651;SDS011;71061;55.714;37.794;2024-03-29T03:47:24;17.48;;;6.72;;
81651;SDS011;71061;55.714;37.794;2024-03-29T03:49:49;19.42;;;7.25;;
81651;SDS011;71061;55.714;37.794;2024-03-29T03:52:15;18.33;;;6.97;;
81651;SDS011;71061;55.714;37.794;2024-03-29T03:54:40;19.80;;;6.30;;
81651;SDS011;71061;55.714;37.794;2024-03-29T03:57:06;15.40;;;6.97;;
81651;SDS011;71061;55.714;37.794;2024-03-29T03:59:32;17.10;;;6.60;;
81651;SDS011;71061;55.714;37.794;2024-03-29T04:01:58;20.10;;;6.70;;
81651;SDS011;71061;55.714;37.794;2024-03-29T04:04:23;15.48;;;6.18;;
81651;SDS011;71061;55.714;37.794;2024-03-29T04:06:49;16.15;;;6.45;;
81651;SDS011;71061;55.714;37.794;2024-03-29T04:09:15;13.50;;;6.18;;
81651;SDS011;71061;55.714;37.794;2024-03-29T04:11:42;18.88;;;7.03;;
81651;SDS011;71061;55.714;37.794;2024-03-29T04:14:08;18.50;;;6.93;;
81651;SDS011;71061;55.714;37.794;2024-03-29T04:16:33;14.27;;;5.80;;
81651;SDS011;71061;55.714;37.794;2024-03-29T04:18:59;15.05;;;5.57;;
81651;SDS011;71061;55.714;37.794;2024-03-29T04:21:25;21.40;;;7.72;;
81651;SDS011;71061;55.714;37.794;2024-03-29T04:23:50;15.50;;;7.70;;
81651;SDS011;71061;55.714;37.794;2024-03-29T04:26:16;15.32;;;5.72;;
81651;SDS011;71061;55.714;37.794;2024-03-29T04:28:42;12.30;;;5.47;;
81651;SDS011;71061;55.714;37.794;2024-03-29T04:31:08;13.60;;;5.97;;
81651;SDS011;71061;55.714;37.794;2024-03-29T04:33:33;10.80;;;5.10;;
81651;SDS011;71061;55.714;37.794;2024-03-29T04:36:00;13.45;;;6.18;;
81651;SDS011;71061;55.714;37.794;2024-03-29T04:38:27;15.40;;;5.75;;
81651;SDS011;71061;55.714;37.794;2024-03-29T04:40:54;15.50;;;5.85;;
81651;SDS011;71061;55.714;37.794;2024-03-29T04:43:21;13.98;;;5.63;;
81651;SDS011;71061;55.714;37.794;2024-03-29T04:45:48;11.95;;;5.80;;
81651;SDS011;71061;55.714;37.794;2024-03-29T04:48:14;17.40;;;5.35;;
81651;SDS011;71061;55.714;37.794;2024-03-29T04:50:40;12.50;;;6.10;;
81651;SDS011;71061;55.714;37.794;2024-03-29T04:53:07;13.68;;;5.93;;
81651;SDS011;71061;55.714;37.794;2024-03-29T04:55:34;14.32;;;6.18;;
81651;SDS011;71061;55.714;37.794;2024-03-29T04:58:00;13.18;;;4.43;;
81651;SDS011;71061;55.714;37.794;2024-03-29T05:00:26;16.45;;;5.18;;
81651;SDS011;71061;55.714;37.794;2024-03-29T05:02:51;15.68;;;5.63;;
81651;SDS011;71061;55.714;37.794;2024-03-29T05:05:17;19.83;;;7.05;;
81651;SDS011;71061;55.714;37.794;2024-03-29T05:07:43;12.55;;;6.13;;
81651;SDS011;71061;55.714;37.794;2024-03-29T05:10:09;15.07;;;5.63;;
81651;SDS011;71061;55.714;37.794;2024-03-29T05:12:35;16.40;;;4.90;;
81651;SDS011;71061;55.714;37.794;2024-03-29T05:15:01;13.05;;;5.03;;
81651;SDS011;71061;55.714;37.794;2024-03-29T05:17:29;13.88;;;5.38;;
81651;SDS011;71061;55.714;37.794;2024-03-29T05:19:55;11.73;;;4.72;;
81651;SDS011;71061;55.714;37.794;2024-03-29T05:22:21;17.52;;;6.18;;
81651;SDS011;71061;55.714;37.794;2024-03-29T05:24:47;13.48;;;6.25;;
81651;SDS011;71061;55.714;37.794;2024-03-29T05:27:13;11.23;;;4.78;;
81651;SDS011;71061;55.714;37.794;2024-03-29T05:29:39;14.07;;;5.20;;
81651;SDS011;71061;55.714;37.794;2024-03-29T05:32:05;18.52;;;5.20;;
81651;SDS011;71061;55.714;37.794;2024-03-29T05:34:31;17.92;;;4.75;;
81651;SDS011;71061;55.714;37.794;2024-03-29T05:36:57;22.40;;;4.97;;
81651;SDS011;71061;55.714;37.794;2024-03-29T05:39:23;18.23;;;4.82;;
81651;SDS011;71061;55.714;37.794;2024-03-29T05:41:49;15.50;;;4.65;;
81651;SDS011;71061;55.714;37.794;2024-03-29T05:44:14;15.00;;;4.70;;
81651;SDS011;71061;55.714;37.794;2024-03-29T05:46:40;13.98;;;4.93;;
81651;SDS011;71061;55.714;37.794;2024-03-29T05:49:06;11.48;;;4.72;;
81651;SDS011;71061;55.714;37.794;2024-03-29T05:51:32;16.55;;;6.32;;
81651;SDS011;71061;55.714;37.794;2024-03-29T05:53:59;11.70;;;5.05;;
81651;SDS011;71061;55.714;37.794;2024-03-29T05:56:25;16.95;;;5.18;;
81651;SDS011;71061;55.714;37.794;2024-03-29T05:58:51;16.65;;;4.60;;
81651;SDS011;71061;55.714;37.794;2024-03-29T06:01:16;17.75;;;6.40;;
81651;SDS011;71061;55.714;37.794;2024-03-29T06:03:42;10.50;;;4.32;;
81651;SDS011;71061;55.714;37.794;2024-03-29T06:06:08;14.60;;;5.18;;
81651;SDS011;71061;55.714;37.794;2024-03-29T06:08:42;14.07;;;4.47;;
81651;SDS011;71061;55.714;37.794;2024-03-29T06:11:08;13.05;;;4.53;;
81651;SDS011;71061;55.714;37.794;2024-03-29T06:13:34;12.10;;;4.57;;
81651;SDS011;71061;55.714;37.794;2024-03-29T06:16:20;18.08;;;5.25;;
81651;SDS011;71061;55.714;37.794;2024-03-29T06:19:06;16.15;;;5.20;;
81651;SDS011;71061;55.714;37.794;2024-03-29T06:21:32;14.93;;;4.75;;
81651;SDS011;71061;55.714;37.794;2024-03-29T06:24:06;24.00;;;4.90;;
81651;SDS011;71061;55.714;37.794;2024-03-29T06:26:33;21.65;;;5.00;;
81651;SDS011;71061;55.714;37.794;2024-03-29T06:29:00;14.85;;;5.28;;
81651;SDS011;71061;55.714;37.794;2024-03-29T06:31:27;16.30;;;5.57;;
81651;SDS011;71061;55.714;37.794;2024-03-29T06:33:53;14.55;;;4.63;;
81651;SDS011;71061;55.714;37.794;2024-03-29T06:36:19;25.00;;;4.50;;
81651;SDS011;71061;55.714;37.794;2024-03-29T06:38:45;19.58;;;5.32;;
81651;SDS011;71061;55.714;37.794;2024-03-29T06:41:10;18.13;;;5.63;;
81651;SDS011;71061;55.714;37.794;2024-03-29T06:43:36;12.82;;;4.75;;
81651;SDS011;71061;55.714;37.794;2024-03-29T06:46:02;18.50;;;6.82;;
81651;SDS011;71061;55.714;37.794;2024-03-29T06:48:29;13.23;;;4.72;;
81651;SDS011;71061;55.714;37.794;2024-03-29T06:50:57;13.10;;;5.10;;
81651;SDS011;71061;55.714;37.794;2024-03-29T06:53:24;16.13;;;5.03;;
81651;SDS011;71061;55.714;37.794;2024-03-29T06:55:50;17.27;;;6.00;;
81651;SDS011;71061;55.714;37.794;2024-03-29T06:58:15;15.55;;;5.03;;
81651;SDS011;71061;55.714;37.794;2024-03-29T07:00:43;21.17;;;5.18;;
81651;SDS011;71061;55.714;37.794;2024-03-29T07:03:11;13.68;;;5.68;;
81651;SDS011;71061;55.714;37.794;2024-03-29T07:05:37;13.90;;;5.40;;
81651;SDS011;71061;55.714;37.794;2024-03-29T07:08:03;14.02;;;4.78;;
81651;SDS011;71061;55.714;37.794;2024-03-29T07:10:29;23.02;;;6.82;;
81651;SDS011;71061;55.714;37.794;2024-03-29T07:12:56;14.48;;;4.80;;
81651;SDS011;71061;55.714;37.794;2024-03-29T07:15:22;14.63;;;5.28;;
81651;SDS011;71061;55.714;37.794;2024-03-29T07:17:49;13.75;;;5.25;;
81651;SDS011;71061;55.714;37.794;2024-03-29T07:20:16;18.55;;;5.35;;
81651;SDS011;71061;55.714;37.794;2024-03-29T07:22:42;15.50;;;5.07;;
81651;SDS011;71061;55.714;37.794;2024-03-29T07:25:08;33.60;;;5.78;;
81651;SDS011;71061;55.714;37.794;2024-03-29T07:27:34;14.57;;;5.65;;
81651;SDS011;71061;55.714;37.794;2024-03-29T07:30:01;15.68;;;4.97;;
81651;SDS011;71061;55.714;37.794;2024-03-29T07:32:30;17.75;;;4.40;;
81651;SDS011;71061;55.714;37.794;2024-03-29T07:34:56;14.50;;;6.25;;
81651;SDS011;71061;55.714;37.794;2024-03-29T07:37:24;13.38;;;4.80;;
81651;SDS011;71061;55.714;37.794;2024-03-29T07:39:50;14.25;;;4.80;;
81651;SDS011;71061;55.714;37.794;2024-03-29T07:42:16;21.45;;;6.25;;
81651;SDS011;71061;55.714;37.794;2024-03-29T07:44:42;13.98;;;5.28;;
81651;SDS011;71061;55.714;37.794;2024-03-29T07:47:08;21.17;;;6.15;;
81651;SDS011;71061;55.714;37.794;2024-03-29T07:49:33;14.68;;;5.43;;
81651;SDS011;71061;55.714;37.794;2024-03-29T07:51:59;13.95;;;5.07;;
81651;SDS011;71061;55.714;37.794;2024-03-29T07:54:28;13.02;;;5.30;;
81651;SDS011;71061;55.714;37.794;2024-03-29T07:56:53;14.90;;;5.88;;
81651;SDS011;71061;55.714;37.794;2024-03-29T07:59:19;12.75;;;5.38;;
81651;SDS011;71061;55.714;37.794;2024-03-29T08:01:45;15.93;;;6.10;;
81651;SDS011;71061;55.714;37.794;2024-03-29T08:04:11;19.98;;;5.38;;
81651;SDS011;71061;55.714;37.794;2024-03-29T08:06:37;15.75;;;5.10;;
81651;SDS011;71061;55.714;37.794;2024-03-29T08:09:02;15.65;;;5.57;;
81651;SDS011;71061;55.714;37.794;2024-03-29T08:11:29;22.33;;;5.22;;
81651;SDS011;71061;55.714;37.794;2024-03-29T08:13:54;15.73;;;5.10;;
81651;SDS011;71061;55.714;37.794;2024-03-29T08:16:20;14.43;;;5.45;;
81651;SDS011;71061;55.714;37.794;2024-03-29T08:18:46;15.60;;;5.28;;
81651;SDS011;71061;55.714;37.794;2024-03-29T08:21:13;21.65;;;6.30;;
81651;SDS011;71061;55.714;37.794;2024-03-29T08:23:40;14.52;;;5.47;;
81651;SDS011;71061;55.714;37.794;2024-03-29T08:26:06;15.38;;;5.80;;
81651;SDS011;71061;55.714;37.794;2024-03-29T08:28:33;20.33;;;5.47;;
81651;SDS011;71061;55.714;37.794;2024-03-29T08:31:03;13.82;;;5.28;;
81651;SDS011;71061;55.714;37.794;2024-03-29T08:33:31;15.30;;;5.78;;
81651;SDS011;71061;55.714;37.794;2024-03-29T08:35:57;16.70;;;6.28;;
81651;SDS011;71061;55.714;37.794;2024-03-29T08:38:23;15.55;;;5.95;;
81651;SDS011;71061;55.714;37.794;2024-03-29T08:40:49;18.95;;;6.53;;
81651;SDS011;71061;55.714;37.794;2024-03-29T08:43:15;21.58;;;6.80;;
81651;SDS011;71061;55.714;37.794;2024-03-29T08:45:44;18.20;;;6.60;;
81651;SDS011;71061;55.714;37.794;2024-03-29T08:48:10;22.05;;;8.05;;
81651;SDS011;71061;55.714;37.794;2024-03-29T08:50:36;15.02;;;6.47;;
81651;SDS011;71061;55.714;37.794;2024-03-29T08:53:02;21.50;;;8.05;;
81651;SDS011;71061;55.714;37.794;2024-03-29T08:55:29;14.85;;;8.43;;
81651;SDS011;71061;55.714;37.794;2024-03-29T08:57:56;12.75;;;6.57;;
81651;SDS011;71061;55.714;37.794;2024-03-29T09:00:24;13.07;;;6.03;;
81651;SDS011;71061;55.714;37.794;2024-03-29T09:02:50;14.13;;;6.53;;
81651;SDS011;71061;55.714;37.794;2024-03-29T09:05:16;11.50;;;6.10;;
81651;SDS011;71061;55.714;37.794;2024-03-29T09:07:42;15.40;;;7.00;;
81651;SDS011;71061;55.714;37.794;2024-03-29T09:10:07;16.80;;;7.10;;
81651;SDS011;71061;55.714;37.794;2024-03-29T09:12:33;17.80;;;7.15;;
81651;SDS011;71061;55.714;37.794;2024-03-29T09:15:00;12.80;;;6.63;;
81651;SDS011;71061;55.714;37.794;2024-03-29T09:17:29;16.50;;;5.53;;
81651;SDS011;71061;55.714;37.794;2024-03-29T09:19:54;15.45;;;8.35;;
81651;SDS011;71061;55.714;37.794;2024-03-29T09:22:20;15.25;;;7.60;;
81651;SDS011;71061;55.714;37.794;2024-03-29T09:24:46;14.07;;;7.63;;
81651;SDS011;71061;55.714;37.794;2024-03-29T09:27:12;15.57;;;7.35;;
81651;SDS011;71061;55.714;37.794;2024-03-29T09:29:38;15.07;;;7.40;;
81651;SDS011;71061;55.714;37.794;2024-03-29T09:32:03;14.27;;;7.13;;
81651;SDS011;71061;55.714;37.794;2024-03-29T09:34:29;10.93;;;6.47;;
81651;SDS011;71061;55.714;37.794;2024-03-29T09:37:15;10.98;;;5.97;;
81651;SDS011;71061;55.714;37.794;2024-03-29T09:39:41;14.88;;;6.20;;
81651;SDS011;71061;55.714;37.794;2024-03-29T09:42:06;14.15;;;7.40;;
81651;SDS011;71061;55.714;37.794;2024-03-29T09:44:33;13.82;;;5.53;;
81651;SDS011;71061;55.714;37.794;2024-03-29T09:47:03;14.35;;;6.88;;
81651;SDS011;71061;55.714;37.794;2024-03-29T09:49:32;15.05;;;7.60;;
81651;SDS011;71061;55.714;37.794;2024-03-29T09:51:59;11.40;;;5.45;;
81651;SDS011;71061;55.714;37.794;2024-03-29T09:54:27;14.57;;;6.72;;
81651;SDS011;71061;55.714;37.794;2024-03-29T09:56:55;15.50;;;6.32;;
81651;SDS011;71061;55.714;37.794;2024-03-29T09:59:21;14.05;;;5.82;;
81651;SDS011;71061;55.714;37.794;2024-03-29T10:01:48;12.77;;;6.50;;
81651;SDS011;71061;55.714;37.794;2024-03-29T10:04:13;13.35;;;6.20;;
81651;SDS011;71061;55.714;37.794;2024-03-29T10:06:40;13.45;;;6.97;;
81651;SDS011;71061;55.714;37.794;2024-03-29T10:09:08;13.18;;;6.57;;
81651;SDS011;71061;55.714;37.794;2024-03-29T10:11:36;14.68;;;6.20;;
81651;SDS011;71061;55.714;37.794;2024-03-29T10:14:02;13.65;;;7.10;;
81651;SDS011;71061;55.714;37.794;2024-03-29T10:16:30;14.32;;;5.95;;
81651;SDS011;71061;55.714;37.794;2024-03-29T10:18:58;12.27;;;7.15;;
81651;SDS011;71061;55.714;37.794;2024-03-29T10:21:24;16.08;;;8.75;;
81651;SDS011;71061;55.714;37.794;2024-03-29T10:23:51;13.80;;;6.82;;
81651;SDS011;71061;55.714;37.794;2024-03-29T10:26:17;18.17;;;7.25;;
81651;SDS011;71061;55.714;37.794;2024-03-29T10:28:43;15.20;;;7.40;;
81651;SDS011;71061;55.714;37.794;2024-03-29T10:31:09;16.33;;;7.00;;
81651;SDS011;71061;55.714;37.794;2024-03-29T10:33:36;14.05;;;7.18;;
81651;SDS011;71061;55.714;37.794;2024-03-29T10:36:02;14.32;;;6.20;;
81651;SDS011;71061;55.714;37.794;2024-03-29T10:38:30;15.95;;;6.47;;
81651;SDS011;71061;55.714;37.794;2024-03-29T10:40:56;16.45;;;7.05;;
81651;SDS011;71061;55.714;37.794;2024-03-29T10:43:22;16.83;;;7.50;;
81651;SDS011;71061;55.714;37.794;2024-03-29T10:45:50;12.75;;;6.57;;
81651;SDS011;71061;55.714;37.794;2024-03-29T10:48:17;18.75;;;7.10;;
81651;SDS011;71061;55.714;37.794;2024-03-29T10:50:46;19.13;;;7.65;;
81651;SDS011;71061;55.714;37.794;2024-03-29T10:53:17;16.10;;;7.28;;
81651;SDS011;71061;55.714;37.794;2024-03-29T10:55:43;12.68;;;6.97;;
81651;SDS011;71061;55.714;37.794;2024-03-29T10:58:10;16.08;;;6.40;;
81651;SDS011;71061;55.714;37.794;2024-03-29T11:00:53;14.95;;;6.93;;
81651;SDS011;71061;55.714;37.794;2024-03-29T11:06:02;16.88;;;7.47;;
81651;SDS011;71061;55.714;37.794;2024-03-29T11:08:31;19.15;;;8.23;;
81651;SDS011;71061;55.714;37.794;2024-03-29T11:11:00;18.83;;;7.85;;
81651;SDS011;71061;55.714;37.794;2024-03-29T11:13:46;16.02;;;8.18;;
81651;SDS011;71061;55.714;37.794;2024-03-29T11:16:29;20.83;;;9.77;;
81651;SDS011;71061;55.714;37.794;2024-03-29T11:18:54;18.27;;;9.80;;
81651;SDS011;71061;55.714;37.794;2024-03-29T11:21:21;15.05;;;7.60;;
81651;SDS011;71061;55.714;37.794;2024-03-29T11:23:50;15.02;;;9.48;;
81651;SDS011;71061;55.714;37.794;2024-03-29T11:26:17;16.17;;;8.93;;
81651;SDS011;71061;55.714;37.794;2024-03-29T11:28:52;20.90;;;9.63;;
81651;SDS011;71061;55.714;37.794;2024-03-29T11:31:21;14.85;;;10.13;;
81651;SDS011;71061;55.714;37.794;2024-03-29T11:33:48;16.50;;;9.50;;
81651;SDS011;71061;55.714;37.794;2024-03-29T11:36:22;18.60;;;10.73;;
81651;SDS011;71061;55.714;37.794;2024-03-29T11:41:22;17.25;;;8.57;;
81651;SDS011;71061;55.714;37.794;2024-03-29T11:43:49;21.63;;;10.85;;
81651;SDS011;71061;55.714;37.794;2024-03-29T11:46:16;18.38;;;9.55;;
81651;SDS011;71061;55.714;37.794;2024-03-29T11:48:43;15.20;;;10.38;;
81651;SDS011;71061;55.714;37.794;2024-03-29T11:51:12;20.63;;;9.48;;
81651;SDS011;71061;55.714;37.794;2024-03-29T11:53:40;16.55;;;9.35;;
81651;SDS011;71061;55.714;37.794;2024-03-29T11:56:06;21.60;;;11.43;;
81651;SDS011;71061;55.714;37.794;2024-03-29T11:58:33;18.52;;;9.57;;
81651;SDS011;71061;55.714;37.794;2024-03-29T12:00:59;19.38;;;10.40;;
81651;SDS011;71061;55.714;37.794;2024-03-29T12:03:26;18.83;;;9.43;;
81651;SDS011;71061;55.714;37.794;2024-03-29T12:05:54;21.80;;;11.43;;
81651;SDS011;71061;55.714;37.794;2024-03-29T12:08:24;17.55;;;10.82;;
81651;SDS011;71061;55.714;37.794;2024-03-29T12:10:51;21.00;;;10.60;;
81651;SDS011;71061;55.714;37.794;2024-03-29T12:13:17;15.80;;;9.98;;
81651;SDS011;71061;55.714;37.794;2024-03-29T12:15:43;20.02;;;11.57;;
81651;SDS011;71061;55.714;37.794;2024-03-29T12:18:09;19.40;;;11.63;;
81651;SDS011;71061;55.714;37.794;2024-03-29T12:20:37;19.63;;;10.90;;
81651;SDS011;71061;55.714;37.794;2024-03-29T12:23:05;18.63;;;10.25;;
81651;SDS011;71061;55.714;37.794;2024-03-29T12:25:33;21.98;;;9.93;;
81651;SDS011;71061;55.714;37.794;2024-03-29T12:28:00;19.73;;;11.02;;
81651;SDS011;71061;55.714;37.794;2024-03-29T12:30:26;20.40;;;10.27;;
81651;SDS011;71061;55.714;37.794;2024-03-29T12:33:01;20.05;;;11.77;;
81651;SDS011;71061;55.714;37.794;2024-03-29T12:35:38;18.65;;;10.38;;
81651;SDS011;71061;55.714;37.794;2024-03-29T12:38:04;20.08;;;9.55;;
81651;SDS011;71061;55.714;37.794;2024-03-29T12:40:32;25.75;;;10.25;;
81651;SDS011;71061;55.714;37.794;2024-03-29T12:43:02;17.45;;;9.20;;
81651;SDS011;71061;55.714;37.794;2024-03-29T12:45:31;18.63;;;10.80;;
81651;SDS011;71061;55.714;37.794;2024-03-29T12:47:57;19.05;;;10.10;;
81651;SDS011;71061;55.714;37.794;2024-03-29T12:53:02;20.95;;;11.68;;
81651;SDS011;71061;55.714;37.794;2024-03-29T12:55:32;20.23;;;10.27;;
81651;SDS011;71061;55.714;37.794;2024-03-29T12:58:01;22.38;;;11.73;;
81651;SDS011;71061;55.714;37.794;2024-03-29T13:00:30;21.00;;;10.73;;
81651;SDS011;71061;55.714;37.794;2024-03-29T13:02:56;20.27;;;10.85;;
81651;SDS011;71061;55.714;37.794;2024-03-29T13:05:22;22.63;;;10.27;;
81651;SDS011;71061;55.714;37.794;2024-03-29T13:07:48;25.33;;;11.30;;
81651;SDS011;71061;55.714;37.794;2024-03-29T13:10:13;17.88;;;10.05;;
81651;SDS011;71061;55.714;37.794;2024-03-29T13:12:40;21.88;;;9.73;;
81651;SDS011;71061;55.714;37.794;2024-03-29T13:15:16;22.10;;;10.60;;
81651;SDS011;71061;55.714;37.794;2024-03-29T13:17:55;17.38;;;10.65;;
81651;SDS011;71061;55.714;37.794;2024-03-29T13:20:22;24.65;;;12.15;;
81651;SDS011;71061;55.714;37.794;2024-03-29T13:22:49;22.00;;;10.85;;
81651;SDS011;71061;55.714;37.794;2024-03-29T13:25:16;21.00;;;10.48;;
81651;SDS011;71061;55.714;37.794;2024-03-29T13:27:43;22.42;;;10.73;;
81651;SDS011;71061;55.714;37.794;2024-03-29T13:30:10;32.15;;;10.35;;
81651;SDS011;71061;55.714;37.794;2024-03-29T13:32:38;19.73;;;10.30;;
81651;SDS011;71061;55.714;37.794;2024-03-29T13:35:06;23.00;;;12.25;;
81651;SDS011;71061;55.714;37.794;2024-03-29T13:37:38;24.17;;;11.52;;
81651;SDS011;71061;55.714;37.794;2024-03-29T13:40:05;22.90;;;10.15;;
81651;SDS011;71061;55.714;37.794;2024-03-29T13:42:32;23.95;;;12.00;;
81651;SDS011;71061;55.714;37.794;2024-03-29T13:44:58;25.10;;;10.77;;
81651;SDS011;71061;55.714;37.794;2024-03-29T13:47:24;22.65;;;12.60;;
81651;SDS011;71061;55.714;37.794;2024-03-29T13:49:50;21.45;;;10.75;;
81651;SDS011;71061;55.714;37.794;2024-03-29T13:52:18;23.33;;;11.52;;
81651;SDS011;71061;55.714;37.794;2024-03-29T13:54:45;24.63;;;11.38;;
81651;SDS011;71061;55.714;37.794;2024-03-29T13:57:13;23.02;;;11.13;;
81651;SDS011;71061;55.714;37.794;2024-03-29T13:59:39;27.02;;;12.00;;
81651;SDS011;71061;55.714;37.794;2024-03-29T14:02:10;20.73;;;11.10;;
81651;SDS011;71061;55.714;37.794;2024-03-29T14:04:37;24.15;;;10.93;;
81651;SDS011;71061;55.714;37.794;2024-03-29T14:07:02;24.95;;;12.82;;
81651;SDS011;71061;55.714;37.794;2024-03-29T14:09:33;21.77;;;10.70;;
81651;SDS011;71061;55.714;37.794;2024-03-29T14:12:00;22.88;;;11.23;;
81651;SDS011;71061;55.714;37.794;2024-03-29T14:14:26;21.20;;;10.15;;
81651;SDS011;71061;55.714;37.794;2024-03-29T14:16:51;24.20;;;11.02;;
81651;SDS011;71061;55.714;37.794;2024-03-29T14:19:17;22.30;;;11.38;;
81651;SDS011;71061;55.714;37.794;2024-03-29T14:21:43;25.30;;;12.25;;
81651;SDS011;71061;55.714;37.794;2024-03-29T14:24:09;21.15;;;12.95;;